Qijiaojing, China
Current Conditions -  °F | °C
As of 5:00 AM on Sunday 26 Oct 2014 (Local Time) from ZWWW Reporting Station
Clear Clear  
Wind Chill: 52°   Ceiling: Unl
Heat Index: 52°   Visibility: 4mi
Dew Point: 43°   Wind: 7mph
Humidity: 71%   Direction: 150°SSE
Pressure: 30.06"   Gusts: NA
Location:  43.48°N, 91.63°E
Report Text: ZWWW 252100Z 15003MPS 6000 NSC 11/06 Q1018 NOSIG
Loading
Personal Weather Stations






























Interactive Weather Map
Tropical Storm Tracking
New forecast layout! Learn more

10-Day Weather Forecast

Advertisements
Track Severe Weather on mobile